Airfield :
LOGIN :

Register | Disclaimer

   EN    FR    IT 

 










Legend :    VFR   Marginal VFR   IFR   Intensive IFR   Very Intensive IFR
Visi :
Ceiling :
>= 8 km
>= 3000ft
5 to 8 km
1000 to 3000 ft
1500m to 5 km
500 to 1000 ft
800 to 1500m
200 to 500 ft
< 800m
< 200 ft
Symbols :   Thunderstorms  Fog  Heavy snow  Heavy precipitations  Wind > 20 kt
SIGMETs :     Misc.  Thunderstorms  Icing  Turbulence  Mountain Waves  Volcanic Ashes






- Airport Elevation : 268 ft
- IATA code : BFS


EGAA - Belfast Aldergrove

CURRENT METAR :
  • 230150Z AUTO 19008KT 9999 OVC031 09/07 Q1018

EXPIRED METARs :
  • 230120Z AUTO 19008KT 9999 OVC032 09/07 Q1019
  • 230050Z AUTO 20008KT 9999 OVC031 09/07 Q1019
  • 230020Z AUTO 21007KT 170V230 9999 OVC029 09/07 Q1019
  • 222350Z AUTO 20006KT 9999 BKN029 OVC033 09/07 Q1020
  • 222320Z AUTO 19006KT 9999 OVC029 09/08 Q1020

TAF TAF EGAA
Valid from the 23 at 00:00 until the 24 at 00:00 UTC


222300Z 2300/2324 18008KT 9999 FEW012 SCT030
PROB30
TEMPO 2300/2302 BKN014
BECMG 2304/2308 19016G28KT
TEMPO 2314/2324 6000 RA
PROB30
TEMPO 2316/2318 BKN014
TEMPO 2318/2324 SCT008 BKN012



MET'MAP, your aeronautical weather chart ! - Copyright ORBIFLY December 2007 - Disclaimer

ORBIFLY MET'MAP TEAM :

Programming & Development : Alexandra Zaïnal
Concept & original design : Baudouin d'Aumeries
Assistance for programming : Marc-Olivier Méhu
Technical & hardware support : Manuel Goepfert

Contact : metmap@orbifly.com




SOURCES & CREDITS :

   NOAA